Time;durP1;ratioP1;P1;durP2;ratioP2;P2;SDS_P1;SDS_P2;PMS_P1;PMS_P2;Temp;Humidity;BMP_temperature;BMP_pressure;BME280_temperature;BME280_humidity;BME280_pressure;Samples;Min_cycle;Max_cycle;Signal;HPM_P1;HPM_P2
2023/08/03 00:00:50;;;;;;;2.28;0.70;;;27.50;46.20;;;;;;21009150;28;20084;-58
2023/08/03 00:10:51;;;;;;;1.83;1.53;;;27.50;46.70;;;;;;21007042;28;20044;-57
2023/08/03 00:20:52;;;;;;;2.43;0.70;;;27.40;47.20;;;;;;21007280;28;20048;-58
2023/08/03 00:30:53;;;;;;;1.83;0.90;;;27.30;47.70;;;;;;21006259;28;20631;-57
2023/08/03 00:40:54;;;;;;;2.60;1.50;;;27.10;48.10;;;;;;21004304;28;20123;-57
2023/08/03 00:50:54;;;;;;;1.40;1.10;;;27.10;48.10;;;;;;21003791;28;20108;-57
2023/08/03 01:00:55;;;;;;;0.97;0.80;;;27.00;48.20;;;;;;21004490;28;20763;-58
2023/08/03 01:10:56;;;;;;;1.43;0.70;;;26.80;48.60;;;;;;21002884;28;20055;-58
2023/08/03 01:20:57;;;;;;;2.88;1.95;;;26.70;48.90;;;;;;21001733;28;20041;-57
2023/08/03 01:30:58;;;;;;;1.98;0.70;;;26.80;48.60;;;;;;21001693;28;20037;-58
2023/08/03 01:41:02;;;;;;;1.67;1.40;;;26.70;49.20;;;;;;21001110;28;20050;-57
2023/08/03 01:51:03;;;;;;;4.40;3.58;;;26.50;49.40;;;;;;20999561;28;20512;-58
2023/08/03 02:01:03;;;;;;;4.20;2.17;;;26.60;49.10;;;;;;20999222;28;20048;-57
2023/08/03 02:11:04;;;;;;;2.67;1.63;;;26.40;49.00;;;;;;20967784;28;20112;-57
2023/08/03 02:21:06;;;;;;;2.20;1.50;;;26.40;49.00;;;;;;20913579;28;20052;-58
2023/08/03 02:31:06;;;;;;;;;;;26.30;49.00;;;;;;20913562;28;20045;-57
2023/08/03 02:41:07;;;;;;;0.93;0.63;;;26.20;49.00;;;;;;20911822;28;19978;-57
2023/08/03 02:51:08;;;;;;;1.37;0.90;;;26.20;49.10;;;;;;20911525;28;20502;-58
2023/08/03 03:01:09;;;;;;;2.07;1.33;;;26.10;49.10;;;;;;20910490;28;20107;-57
2023/08/03 03:11:09;;;;;;;1.70;0.67;;;26.00;48.80;;;;;;20910998;28;20056;-58
2023/08/03 03:21:10;;;;;;;1.73;1.17;;;26.00;48.50;;;;;;20911203;28;20049;-57
2023/08/03 03:31:11;;;;;;;1.53;1.20;;;26.10;48.00;;;;;;20908978;28;20045;-57
2023/08/03 03:41:11;;;;;;;3.77;2.33;;;25.90;48.40;;;;;;20910242;28;20049;-57
2023/08/03 03:51:12;;;;;;;9.03;7.33;;;25.90;48.20;;;;;;20908062;28;20045;-57
2023/08/03 04:01:13;;;;;;;4.13;2.87;;;25.60;48.00;;;;;;20908621;28;20049;-57
2023/08/03 04:11:14;;;;;;;2.17;1.33;;;25.50;48.00;;;;;;20939239;28;20483;-58
2023/08/03 04:21:15;;;;;;;4.57;3.13;;;25.50;48.00;;;;;;21004982;28;20041;-57
2023/08/03 04:31:15;;;;;;;1.60;1.00;;;25.40;48.20;;;;;;21005927;28;20580;-59
2023/08/03 04:41:16;;;;;;;6.27;3.97;;;25.30;47.90;;;;;;21004993;28;20047;-57
2023/08/03 04:51:18;;;;;;;2.87;1.53;;;25.50;47.10;;;;;;21004708;28;20040;-57
2023/08/03 05:01:18;;;;;;;2.00;1.10;;;25.40;46.80;;;;;;21003686;28;20438;-57
2023/08/03 05:11:19;;;;;;;1.70;1.10;;;25.20;46.90;;;;;;21001776;28;20060;-57
2023/08/03 05:21:20;;;;;;;2.97;1.13;;;25.10;47.10;;;;;;21001116;28;20045;-57
2023/08/03 05:31:20;;;;;;;2.17;1.33;;;25.10;46.70;;;;;;21000618;28;20411;-57
2023/08/03 05:41:25;;;;;;;4.77;1.10;;;24.90;46.40;;;;;;21000462;28;20040;-57
2023/08/03 05:51:27;;;;;;;2.30;1.30;;;24.90;45.90;;;;;;20999808;28;20103;-59
2023/08/03 06:01:28;;;;;;;5.82;1.90;;;25.10;45.50;;;;;;20999274;28;20083;-58
2023/08/03 06:11:30;;;;;;;3.67;2.73;;;25.00;45.40;;;;;;20998131;28;20460;-57
2023/08/03 06:21:31;;;;;;;2.45;1.10;;;25.00;45.00;;;;;;20997339;28;20056;-58
2023/08/03 06:31:37;;;;;;;3.20;1.20;;;25.10;45.00;;;;;;20997821;28;20452;-58
2023/08/03 06:41:38;;;;;;;4.90;1.38;;;25.20;44.60;;;;;;20996754;28;20498;-56
2023/08/03 06:51:39;;;;;;;4.13;1.20;;;25.60;41.90;;;;;;20994899;28;20201;-58
2023/08/03 07:01:40;;;;;;;4.20;1.47;;;26.30;40.20;;;;;;20995737;28;20516;-57
2023/08/03 07:11:40;;;;;;;3.83;1.27;;;26.90;38.90;;;;;;20995086;28;20053;-57
2023/08/03 07:21:41;;;;;;;5.60;1.27;;;27.20;38.50;;;;;;20995643;28;20090;-58
2023/08/03 07:31:42;;;;;;;4.13;1.40;;;27.60;38.30;;;;;;20993871;28;20045;-57
2023/08/03 07:41:43;;;;;;;;;;;28.00;37.90;;;;;;20995178;28;20044;-58
2023/08/03 07:51:48;;;;;;;11.33;2.70;;;28.10;37.40;;;;;;21002589;28;19928;-56
2023/08/03 08:01:48;;;;;;;2.00;1.08;;;28.20;38.30;;;;;;21008963;28;20123;-59
2023/08/03 08:11:49;;;;;;;4.10;1.33;;;28.40;37.60;;;;;;21008663;28;20088;-58
2023/08/03 08:21:50;;;;;;;;;;;28.60;36.30;;;;;;21007697;28;20049;-58
2023/08/03 08:31:51;;;;;;;4.57;1.80;;;28.30;36.30;;;;;;20959936;28;19920;-58
2023/08/03 08:41:51;;;;;;;;;;;28.50;36.50;;;;;;20922515;28;20463;-57
2023/08/03 08:51:58;;;;;;;3.87;1.50;;;28.60;35.30;;;;;;20916725;28;19920;-58
2023/08/03 09:02:01;;;;;;;2.80;1.20;;;28.80;35.60;;;;;;20912872;28;20049;-57
2023/08/03 09:12:01;;;;;;;3.10;1.55;;;28.90;35.50;;;;;;20919635;28;20053;-57
2023/08/03 09:22:03;;;;;;;4.40;1.40;;;29.00;35.30;;;;;;20920599;28;20134;-62
2023/08/03 09:32:05;;;;;;;3.00;1.40;;;29.30;36.80;;;;;;20914747;28;20049;-59
2023/08/03 09:42:09;;;;;;;4.38;1.70;;;29.50;35.20;;;;;;20915276;28;20106;-58
2023/08/03 09:52:16;;;;;;;4.05;1.70;;;29.50;35.70;;;;;;20910420;28;20125;-59
2023/08/03 10:02:21;;;;;;;6.88;2.00;;;29.60;35.10;;;;;;20915184;28;20491;-59
2023/08/03 10:12:30;;;;;;;3.85;1.90;;;30.00;34.30;;;;;;20915401;28;20624;-58
2023/08/03 10:22:30;;;;;;;3.92;1.88;;;30.10;33.70;;;;;;20908637;28;20466;-58
2023/08/03 10:32:31;;;;;;;2.40;1.40;;;29.90;33.70;;;;;;20915546;28;20067;-58
2023/08/03 10:42:34;;;;;;;2.45;1.40;;;29.70;33.20;;;;;;20914539;28;20122;-58
2023/08/03 10:52:35;;;;;;;2.38;1.42;;;29.60;33.30;;;;;;20912943;28;20509;-58
2023/08/03 11:02:35;;;;;;;2.38;1.70;;;29.60;32.70;;;;;;20913566;28;20095;-58
2023/08/03 11:12:38;;;;;;;3.63;1.63;;;29.60;33.20;;;;;;20911771;28;20096;-58
2023/08/03 11:22:38;;;;;;;3.78;1.60;;;29.70;32.80;;;;;;20913138;28;20056;-58
2023/08/03 11:32:40;;;;;;;4.32;1.70;;;29.70;31.30;;;;;;20928212;28;20041;-57
2023/08/03 11:42:43;;;;;;;3.63;1.80;;;29.70;31.90;;;;;;20928224;28;20102;-59
2023/08/03 11:52:44;;;;;;;3.85;1.95;;;29.80;31.70;;;;;;20926387;28;20048;-58
2023/08/03 12:02:45;;;;;;;2.60;1.70;;;30.10;30.60;;;;;;20925129;28;20505;-58
2023/08/03 12:12:46;;;;;;;4.55;1.98;;;30.10;30.60;;;;;;20924800;28;20051;-59
2023/08/03 12:22:46;;;;;;;3.83;1.92;;;30.10;30.30;;;;;;20924002;28;20102;-58
2023/08/03 12:32:47;;;;;;;4.78;1.80;;;30.40;30.10;;;;;;20923710;28;20051;-58
2023/08/03 12:42:48;;;;;;;2.85;1.85;;;30.50;29.80;;;;;;20923631;28;20518;-59
2023/08/03 12:52:49;;;;;;;3.22;2.15;;;30.90;29.60;;;;;;20922106;28;20161;-59
2023/08/03 13:02:49;;;;;;;4.18;2.35;;;31.00;29.30;;;;;;20921756;28;20107;-59
2023/08/03 13:12:50;;;;;;;3.28;1.90;;;31.30;28.40;;;;;;20920316;28;20056;-58
2023/08/03 13:22:51;;;;;;;3.72;1.75;;;31.20;28.50;;;;;;20919142;28;20048;-58
2023/08/03 13:32:51;;;;;;;3.20;2.10;;;31.30;27.40;;;;;;20918503;28;20398;-58
2023/08/03 13:42:52;;;;;;;4.50;2.40;;;31.10;28.20;;;;;;20918803;28;20405;-59
2023/08/03 13:52:53;;;;;;;4.53;2.00;;;31.40;27.70;;;;;;20916284;28;20048;-59
2023/08/03 14:02:54;;;;;;;4.10;2.20;;;31.80;26.90;;;;;;20917126;28;20052;-59
2023/08/03 14:12:55;;;;;;;3.78;2.75;;;31.70;26.40;;;;;;20916447;28;20053;-58
2023/08/03 14:22:55;;;;;;;3.75;2.33;;;31.80;25.90;;;;;;20915015;28;20048;-57
2023/08/03 14:32:56;;;;;;;4.60;2.80;;;32.00;23.70;;;;;;20915422;28;20041;-58
2023/08/03 14:42:57;;;;;;;3.53;2.13;;;32.10;22.40;;;;;;20914911;28;20116;-59
2023/08/03 14:52:58;;;;;;;3.90;2.33;;;32.20;21.60;;;;;;20913872;28;20077;-59
2023/08/03 15:02:58;;;;;;;3.65;2.13;;;32.10;20.80;;;;;;20911993;28;20057;-59
2023/08/03 15:12:59;;;;;;;5.10;2.10;;;32.30;19.90;;;;;;20913743;28;20470;-58
2023/08/03 15:23:00;;;;;;;29.55;26.35;;;32.50;18.90;;;;;;20911486;28;20045;-58
2023/08/03 15:33:00;;;;;;;4.18;1.88;;;32.50;17.70;;;;;;20912662;28;20490;-59
2023/08/03 15:43:02;;;;;;;3.90;2.17;;;32.70;16.80;;;;;;20912354;28;20379;-57
2023/08/03 15:53:03;;;;;;;5.43;2.50;;;32.50;17.30;;;;;;20910709;28;20052;-58
2023/08/03 16:03:03;;;;;;;6.82;3.25;;;32.40;17.70;;;;;;20911017;28;20044;-58
2023/08/03 16:13:06;;;;;;;5.68;3.28;;;32.30;18.50;;;;;;20919384;28;20053;-59
2023/08/03 16:23:07;;;;;;;4.82;2.38;;;32.00;19.10;;;;;;20924826;28;20400;-58
2023/08/03 16:33:08;;;;;;;5.22;3.10;;;31.90;18.90;;;;;;20923802;28;20040;-58
2023/08/03 16:43:08;;;;;;;4.63;1.90;;;31.70;18.60;;;;;;20922946;28;20135;-58
2023/08/03 16:53:09;;;;;;;3.63;2.05;;;31.90;18.30;;;;;;20923122;28;20433;-58
2023/08/03 17:03:10;;;;;;;5.13;2.72;;;31.60;18.60;;;;;;20920662;28;20045;-58
2023/08/03 17:13:11;;;;;;;11.77;3.03;;;31.40;20.20;;;;;;20920272;28;20521;-58
2023/08/03 17:23:12;;;;;;;6.25;1.90;;;31.20;19.70;;;;;;20920256;28;20053;-58
2023/08/03 17:33:13;;;;;;;5.50;3.03;;;31.10;18.70;;;;;;20920039;28;20055;-58
2023/08/03 17:43:13;;;;;;;6.07;2.85;;;30.90;18.20;;;;;;20917329;28;20045;-59
2023/08/03 17:53:15;;;;;;;6.93;3.47;;;30.80;17.80;;;;;;20917465;28;20478;-59
2023/08/03 18:03:15;;;;;;;3.17;1.90;;;30.60;17.70;;;;;;20918213;28;20110;-57
2023/08/03 18:13:16;;;;;;;5.57;2.03;;;30.40;18.00;;;;;;20915666;28;20092;-58
2023/08/03 18:23:17;;;;;;;3.20;1.95;;;30.20;17.20;;;;;;20916394;28;20085;-59
2023/08/03 18:33:17;;;;;;;3.60;1.92;;;30.00;17.60;;;;;;20915137;28;20128;-58
2023/08/03 18:43:18;;;;;;;5.07;3.13;;;29.70;19.30;;;;;;20914832;28;20127;-57
2023/08/03 18:53:19;;;;;;;3.45;2.10;;;29.40;20.00;;;;;;20914149;28;20045;-58
2023/08/03 19:03:20;;;;;;;4.75;1.83;;;29.20;20.00;;;;;;20913957;28;20098;-57
2023/08/03 19:13:22;;;;;;;3.63;1.88;;;29.00;20.00;;;;;;20912606;28;20067;-59
2023/08/03 19:23:26;;;;;;;5.07;1.83;;;28.70;20.60;;;;;;20912964;28;20469;-59
2023/08/03 19:33:27;;;;;;;4.05;1.98;;;28.50;20.20;;;;;;20912141;28;20045;-59
2023/08/03 19:43:29;;;;;;;2.70;1.63;;;28.30;20.40;;;;;;20912845;28;20048;-60
2023/08/03 19:53:29;;;;;;;;;;;28.10;20.40;;;;;;20927760;28;20102;-58
2023/08/03 20:03:30;;;;;;;4.15;2.15;;;27.90;21.20;;;;;;20926391;28;20374;-60
2023/08/03 20:13:31;;;;;;;3.53;2.10;;;27.70;21.10;;;;;;20926127;28;20517;-59
2023/08/03 20:23:32;;;;;;;4.00;1.93;;;27.50;21.60;;;;;;20926042;28;20524;-60
2023/08/03 20:33:32;;;;;;;6.07;2.33;;;27.40;21.60;;;;;;20925119;28;20381;-57
2023/08/03 20:43:33;;;;;;;4.30;2.20;;;27.10;22.00;;;;;;20924199;28;20075;-59
2023/08/03 20:53:34;;;;;;;5.90;2.40;;;27.00;22.40;;;;;;20922441;28;20045;-59
2023/08/03 21:03:35;;;;;;;4.10;2.40;;;26.90;22.10;;;;;;20923229;28;20048;-57
2023/08/03 21:13:35;;;;;;;6.27;2.13;;;26.70;22.40;;;;;;20921644;28;20057;-57
2023/08/03 21:23:36;;;;;;;5.70;2.60;;;26.60;22.50;;;;;;20922017;28;20080;-59
2023/08/03 21:33:37;;;;;;;5.60;2.50;;;26.50;23.00;;;;;;20919691;28;20098;-59
2023/08/03 21:43:38;;;;;;;5.27;2.63;;;26.50;22.80;;;;;;20918703;28;20076;-58
2023/08/03 21:53:38;;;;;;;6.37;2.43;;;26.40;23.30;;;;;;20919432;28;20524;-58
2023/08/03 22:03:39;;;;;;;5.97;2.40;;;26.20;23.20;;;;;;20918584;28;20049;-59
2023/08/03 22:13:40;;;;;;;13.27;3.87;;;26.20;23.20;;;;;;20916082;28;20422;-58
2023/08/03 22:23:41;;;;;;;4.77;1.97;;;26.20;23.90;;;;;;20914831;28;20060;-57
2023/08/03 22:33:42;;;;;;;5.17;2.37;;;26.20;24.10;;;;;;20913817;28;20045;-60
2023/08/03 22:43:43;;;;;;;7.40;2.10;;;26.10;24.50;;;;;;20913508;28;20571;-59
2023/08/03 22:53:45;;;;;;;5.45;1.80;;;26.00;24.90;;;;;;20914081;28;20491;-59
2023/08/03 23:03:47;;;;;;;6.60;1.98;;;26.00;25.20;;;;;;20913634;28;20045;-59
2023/08/03 23:13:48;;;;;;;6.80;2.17;;;25.90;25.80;;;;;;20912126;28;20083;-59
2023/08/03 23:23:48;;;;;;;5.77;1.87;;;25.60;29.40;;;;;;20911975;28;20526;-58
2023/08/03 23:33:49;;;;;;;7.50;1.70;;;25.30;31.90;;;;;;20912281;28;20048;-58
2023/08/03 23:43:50;;;;;;;7.45;1.83;;;24.90;33.10;;;;;;20910427;28;20080;-58
2023/08/03 23:53:51;;;;;;;3.88;1.70;;;24.60;34.50;;;;;;20909762;28;20490;-57
